CheckWX is a tool to help pilots better visualize weather data.  It is not intended as a substitute for an official pre-flight weather briefing.

16:02:22 UTC

VVCR TAF
Cam Ranh Airport
Nha Trang, Vietnam
TAF VVCR 181100Z 1812/1912 07010KT 9999 FEW015 SCT050 BECMG 1817/1818 36005KT BECMG 1901/1902 07012KT

Mar-18@
12:00 UTC

Mar-18 @ 12:00 UTC

Mar-18@
17:00 UTC

Mar-18 @ 17:00 UTC

TAF VVCR 181100Z 1812/1912 07010KT 9999 FEW015 SCT050
Wind
  • 070° at 10 KTS
Cloud Levels
  • Few at 1,500' AGL
  • Scattered at 5,000' AGL

Mar-18@
17:00 UTC

Mar-18 @ 17:00 UTC

Mar-19@
01:00 UTC

Mar-19 @ 01:00 UTC

BECMG 1817/1818 36005KT

Becoming

Becoming Conditions expected by Mon, Mar 18, 2019 @ 18:00 UTC

Wind
  • 360° at 5 KTS
Cloud Levels
  • Few at 1,500' AGL
  • Scattered at 5,000' AGL

Mar-19@
01:00 UTC

Mar-19 @ 01:00 UTC

Mar-19@
12:00 UTC

Mar-19 @ 12:00 UTC

BECMG 1901/1902 07012KT

Becoming

Becoming Conditions expected by Tue, Mar 19, 2019 @ 02:00 UTC

Wind
  • 070° at 12 KTS
Cloud Levels
  • Few at 1,500' AGL
  • Scattered at 5,000' AGL